createdAt,value
2023-02-19T00:02:10.048Z,97832.88
2023-02-19T00:06:11.405Z,97835.38
2023-02-19T00:10:12.802Z,97820.59
2023-02-19T00:14:15.505Z,97821.88
2023-02-19T00:18:18.235Z,97819.72
2023-02-19T00:22:19.584Z,97814.19
2023-02-19T00:26:21.268Z,97814.78
2023-02-19T00:30:22.630Z,97815.94
2023-02-19T00:34:25.334Z,97812.13
2023-02-19T00:38:26.734Z,97814.63
2023-02-19T00:42:28.085Z,97815.19
2023-02-19T00:46:30.555Z,97809.63
2023-02-19T00:50:33.281Z,97809.94
2023-02-19T00:54:34.762Z,97806.66
2023-02-19T00:58:36.160Z,97807.53
2023-02-19T01:02:37.507Z,97805.31
2023-02-19T01:06:40.319Z,97806.72
2023-02-19T01:10:41.895Z,97809.03
2023-02-19T01:14:43.285Z,97804.69
2023-02-19T01:18:45.273Z,97799.47
2023-02-19T01:22:48.000Z,97796.78
2023-02-19T01:26:49.384Z,97781.03
2023-02-19T01:30:50.721Z,97773.34
2023-02-19T01:34:52.047Z,97764.25
2023-02-19T01:38:55.064Z,97761.78
2023-02-19T01:42:56.403Z,97762.94
2023-02-19T01:46:57.755Z,97754.69
2023-02-19T01:51:03.968Z,97748.41
2023-02-19T01:55:07.925Z,97748.16
2023-02-19T01:59:09.474Z,97732.16
2023-02-19T02:03:11.106Z,97726.38
2023-02-19T02:07:12.721Z,97723.38
2023-02-19T02:11:15.440Z,97706.84
2023-02-19T02:15:17.106Z,97704.94
2023-02-19T02:19:29.839Z,97699.97
2023-02-19T02:23:39.391Z,97689.53
2023-02-19T02:27:51.350Z,97680.97
2023-02-19T02:31:57.023Z,97683.75
2023-02-19T02:36:00.002Z,97686.19
2023-02-19T02:40:02.104Z,97668.03
2023-02-19T02:44:03.461Z,97657.81
2023-02-19T02:48:19.854Z,97657.84
2023-02-19T02:52:21.909Z,97663.88
2023-02-19T02:56:24.434Z,97657.28
2023-02-19T03:00:26.497Z,97652.06
2023-02-19T03:04:31.631Z,97649.59
2023-02-19T03:08:36.622Z,97643.03
2023-02-19T03:12:39.684Z,97641.91
2023-02-19T03:16:43.124Z,97643.03
2023-02-19T03:20:48.465Z,97627.84
2023-02-19T03:24:52.745Z,97630.03
2023-02-19T03:28:54.996Z,97635.81
2023-02-19T03:32:58.627Z,97633.59
2023-02-19T03:37:04.261Z,97636.34
2023-02-19T03:41:10.684Z,97641.56
2023-02-19T03:45:23.861Z,97634.66
2023-02-19T03:49:29.347Z,97629.41
2023-02-19T03:53:34.676Z,97629.44
2023-02-19T03:57:39.259Z,97630.81
2023-02-19T04:01:43.370Z,97620.09
2023-02-19T04:05:46.467Z,97610.16
2023-02-19T04:09:50.834Z,97602.97
2023-02-19T04:13:56.248Z,97607.97
2023-02-19T04:17:59.741Z,97603.56
2023-02-19T04:22:01.716Z,97602.75
2023-02-19T04:26:05.204Z,97610.16
2023-02-19T04:30:08.765Z,97605.69
2023-02-19T04:34:10.161Z,97610.97
2023-02-19T04:38:11.576Z,97615.44
2023-02-19T04:42:14.294Z,97621.97
2023-02-19T04:46:15.776Z,97635.53
2023-02-19T04:50:17.215Z,97624.53
2023-02-19T04:54:18.660Z,97628.88
2023-02-19T04:58:21.688Z,97630.00
2023-02-19T05:02:23.017Z,97618.69
2023-02-19T05:06:24.354Z,97629.44
2023-02-19T05:10:25.699Z,97632.47
2023-02-19T05:14:28.409Z,97641.59
2023-02-19T05:18:29.833Z,97636.63
2023-02-19T05:22:31.242Z,97626.19
2023-02-19T05:26:32.587Z,97642.44
2023-02-19T05:30:35.469Z,97655.94
2023-02-19T05:34:37.095Z,97658.16
2023-02-19T05:38:39.015Z,97642.44
2023-02-19T05:42:40.353Z,97642.16
2023-02-19T05:46:43.141Z,97646.25
2023-02-19T05:50:44.524Z,97648.50
2023-02-19T05:54:45.860Z,97649.84
2023-02-19T05:58:47.188Z,97643.50
2023-02-19T06:02:49.918Z,97647.41
2023-02-19T06:06:51.319Z,97659.25
2023-02-19T06:10:52.715Z,97659.25
2023-02-19T06:14:54.049Z,97661.47
2023-02-19T06:18:56.734Z,97660.59
2023-02-19T06:22:58.071Z,97672.19
2023-02-19T06:26:59.462Z,97669.41
2023-02-19T06:31:00.887Z,97695.56
2023-02-19T06:35:03.826Z,97699.19
2023-02-19T06:39:05.424Z,97704.22
2023-02-19T06:43:06.798Z,97697.06
2023-02-19T06:47:08.136Z,97705.81
2023-02-19T06:51:12.915Z,97713.28
2023-02-19T06:55:14.346Z,97722.94
2023-02-19T06:59:16.020Z,97726.00
2023-02-19T07:03:17.330Z,97727.06
2023-02-19T07:07:20.141Z,97729.50
2023-02-19T07:11:21.521Z,97731.19
2023-02-19T07:15:22.858Z,97729.00
2023-02-19T07:19:24.182Z,97740.25
2023-02-19T07:23:26.984Z,97747.94
2023-02-19T07:27:28.310Z,97740.25
2023-02-19T07:31:29.747Z,97754.03
2023-02-19T07:35:31.171Z,97757.84
2023-02-19T07:39:33.855Z,97763.34
2023-02-19T07:43:35.812Z,97768.59
2023-02-19T07:47:37.148Z,97771.03
2023-02-19T07:51:38.480Z,97773.19
2023-02-19T07:55:41.161Z,97767.13
2023-02-19T07:59:42.487Z,97768.78
2023-02-19T08:03:44.610Z,97785.56
2023-02-19T08:07:45.926Z,97783.88
2023-02-19T08:11:48.672Z,97800.72
2023-02-19T08:15:50.737Z,97802.84
2023-02-19T08:19:52.089Z,97803.69
2023-02-19T08:23:53.441Z,97803.69
2023-02-19T08:27:56.251Z,97797.00
2023-02-19T08:31:57.641Z,97796.47
2023-02-19T08:36:01.480Z,97816.34
2023-02-19T08:40:03.017Z,97821.25
2023-02-19T08:44:05.752Z,97806.94
2023-02-19T08:48:07.658Z,97809.41
2023-02-19T08:52:09.031Z,97811.34
2023-02-19T08:56:11.344Z,97817.66
2023-02-19T09:00:14.781Z,97833.41
2023-02-19T09:04:16.138Z,97826.44
2023-02-19T09:08:17.490Z,97836.56
2023-02-19T09:12:19.090Z,97838.75
2023-02-19T09:16:21.913Z,97839.31
2023-02-19T09:20:23.365Z,97843.72
2023-02-19T09:24:24.769Z,97851.72
2023-02-19T09:28:26.185Z,97847.31
2023-02-19T09:32:31.497Z,97849.25
2023-02-19T09:36:32.898Z,97858.09
2023-02-19T09:40:35.542Z,97861.66
2023-02-19T09:44:38.958Z,97864.66
2023-02-19T09:48:41.978Z,97859.09
2023-02-19T09:52:45.530Z,97877.00
2023-02-19T09:56:46.940Z,97881.59
2023-02-19T10:00:49.370Z,97879.84
2023-02-19T10:04:52.412Z,97890.03
2023-02-19T10:08:55.811Z,97896.00
2023-02-19T10:13:02.601Z,97883.00
2023-02-19T10:17:05.245Z,97895.31
2023-02-19T10:21:08.076Z,97899.72
2023-02-19T10:25:13.417Z,97896.94
2023-02-19T10:29:14.810Z,97905.84
2023-02-19T10:33:16.404Z,97901.22
2023-02-19T10:37:19.166Z,97894.81
2023-02-19T10:41:22.167Z,97901.25
2023-02-19T10:45:25.541Z,97906.72
2023-02-19T10:49:28.072Z,97902.84
2023-02-19T10:53:38.822Z,97904.75
2023-02-19T10:57:40.243Z,97909.19
2023-02-19T11:01:52.953Z,97918.56
2023-02-19T11:05:57.989Z,97918.00
2023-02-19T11:10:01.007Z,97928.47
2023-02-19T11:14:04.146Z,97924.34
2023-02-19T11:18:17.743Z,97925.16
2023-02-19T11:22:20.625Z,97919.91
2023-02-19T11:26:25.350Z,97921.81
2023-02-19T11:30:37.677Z,97924.91
2023-02-19T11:34:39.067Z,97918.00
2023-02-19T11:38:40.450Z,97909.41
2023-02-19T11:42:44.884Z,97916.28
2023-02-19T11:46:49.714Z,97920.16
2023-02-19T11:50:56.559Z,97911.88
2023-02-19T11:55:03.682Z,97921.56
2023-02-19T11:59:11.455Z,97917.16
2023-02-19T12:03:32.007Z,97929.22
2023-02-19T12:07:48.235Z,97931.41
2023-02-19T12:11:52.348Z,97929.66
2023-02-19T12:16:02.666Z,97939.72
2023-02-19T12:20:13.199Z,97931.94
2023-02-19T12:24:21.654Z,97933.47
2023-02-19T12:28:37.438Z,97947.59
2023-02-19T12:32:44.751Z,97943.56
2023-02-19T12:36:52.883Z,97945.44
2023-02-19T12:41:03.626Z,97958.28
2023-02-19T12:45:07.072Z,97957.59
2023-02-19T12:49:13.482Z,97954.44
2023-02-19T12:53:21.684Z,97966.31
2023-02-19T12:57:24.825Z,97974.84
2023-02-19T13:01:28.418Z,97969.34
2023-02-19T13:05:38.342Z,97970.41
2023-02-19T13:09:41.198Z,97960.66
2023-02-19T13:13:44.021Z,97965.91
2023-02-19T13:17:47.293Z,97971.41
2023-02-19T13:21:55.522Z,97972.84
2023-02-19T13:26:06.182Z,97968.47
2023-02-19T13:30:15.399Z,97965.38
2023-02-19T13:34:23.507Z,97957.75
2023-02-19T13:38:26.465Z,97965.69
2023-02-19T13:42:31.035Z,97967.91
2023-02-19T13:46:33.825Z,97954.06
2023-02-19T13:50:35.210Z,97970.63
2023-02-19T13:54:37.956Z,97962.66
2023-02-19T13:58:57.377Z,97975.50
2023-02-19T14:03:13.640Z,97972.13
2023-02-19T14:07:35.334Z,97964.94
2023-02-19T14:12:03.929Z,97972.00
2023-02-19T14:16:26.809Z,97965.69
2023-02-19T14:20:40.867Z,97974.34
2023-02-19T14:24:42.271Z,97962.19
2023-02-19T14:28:44.495Z,97958.53
2023-02-19T14:32:54.507Z,97968.47
2023-02-19T14:36:59.111Z,97963.91
2023-02-19T14:41:02.579Z,97974.09
2023-02-19T14:45:06.263Z,97997.13
2023-02-19T14:49:15.100Z,97995.97
2023-02-19T14:53:17.453Z,98006.03
2023-02-19T14:57:22.061Z,98019.97
2023-02-19T15:01:26.788Z,98034.19
2023-02-19T15:05:31.842Z,98047.22
2023-02-19T15:09:36.726Z,98046.38
2023-02-19T15:13:39.651Z,98041.41
2023-02-19T15:17:41.152Z,98049.31
2023-02-19T15:21:46.510Z,98055.31
2023-02-19T15:25:48.268Z,98049.81
2023-02-19T15:29:52.990Z,98049.78
2023-02-19T15:33:54.791Z,98055.53
2023-02-19T15:37:57.509Z,98044.81
2023-02-19T15:42:00.650Z,98052.53
2023-02-19T15:46:04.109Z,98051.72
2023-02-19T15:50:07.968Z,98052.41
2023-02-19T15:54:14.701Z,98051.72
2023-02-19T15:58:19.937Z,98049.00
2023-02-19T16:02:21.581Z,98060.59
2023-02-19T16:06:23.638Z,98063.13
2023-02-19T16:10:26.407Z,98065.06
2023-02-19T16:14:31.550Z,98077.22
2023-02-19T16:18:33.407Z,98086.91
2023-02-19T16:22:40.624Z,98100.69
2023-02-19T16:26:44.204Z,98108.91
2023-02-19T16:30:45.610Z,98116.06
2023-02-19T16:34:48.022Z,98111.94
2023-02-19T16:38:59.374Z,98112.75
2023-02-19T16:43:19.180Z,98121.59
2023-02-19T16:47:27.635Z,98121.84
2023-02-19T16:51:28.975Z,98131.50
2023-02-19T16:55:31.358Z,98125.13
2023-02-19T16:59:32.759Z,98140.53
2023-02-19T17:03:38.383Z,98140.25
2023-02-19T17:07:39.798Z,98159.78
2023-02-19T17:11:41.184Z,98166.59
2023-02-19T17:15:42.528Z,98169.03
2023-02-19T17:19:45.267Z,98176.75
2023-02-19T17:23:46.655Z,98179.69
2023-02-19T17:27:48.141Z,98185.09
2023-02-19T17:31:49.567Z,98187.28
2023-02-19T17:35:52.340Z,98198.47
2023-02-19T17:39:53.742Z,98192.91
2023-02-19T17:43:55.321Z,98200.94
2023-02-19T17:47:56.643Z,98212.06
2023-02-19T17:51:59.365Z,98218.66
2023-02-19T17:56:00.716Z,98233.84
2023-02-19T18:00:02.144Z,98241.88
2023-02-19T18:04:03.704Z,98238.00
2023-02-19T18:08:06.434Z,98248.72
2023-02-19T18:12:08.157Z,98261.88
2023-02-19T18:16:09.599Z,98257.38
2023-02-19T18:20:13.124Z,98264.22
2023-02-19T18:24:15.864Z,98269.53
2023-02-19T18:28:17.189Z,98278.31
2023-02-19T18:32:18.596Z,98278.25
2023-02-19T18:36:19.986Z,98292.72
2023-02-19T18:40:23.209Z,98289.81
2023-02-19T18:44:24.698Z,98294.03
2023-02-19T18:48:26.062Z,98283.84
2023-02-19T18:52:27.427Z,98288.00
2023-02-19T18:56:30.184Z,98305.38
2023-02-19T19:00:31.605Z,98293.00
2023-02-19T19:04:33.243Z,98298.53
2023-02-19T19:08:34.599Z,98300.75
2023-02-19T19:12:37.312Z,98301.84
2023-02-19T19:16:38.692Z,98303.50
2023-02-19T19:20:40.158Z,98299.66
2023-02-19T19:24:42.357Z,98296.31
2023-02-19T19:28:45.049Z,98299.59
2023-02-19T19:32:47.887Z,98300.19
2023-02-19T19:36:49.318Z,98301.78
2023-02-19T19:40:50.692Z,98310.88
2023-02-19T19:44:53.409Z,98315.59
2023-02-19T19:48:54.761Z,98300.72
2023-02-19T19:52:56.180Z,98307.59
2023-02-19T19:56:57.565Z,98300.84
2023-02-19T20:01:00.351Z,98320.44
2023-02-19T20:05:01.709Z,98308.53
2023-02-19T20:09:03.135Z,98307.16
2023-02-19T20:13:04.502Z,98322.88
2023-02-19T20:17:07.203Z,98323.19
2023-02-19T20:21:08.708Z,98335.84
2023-02-19T20:25:10.425Z,98335.84
2023-02-19T20:29:12.087Z,98337.28
2023-02-19T20:33:14.876Z,98337.53
2023-02-19T20:37:16.302Z,98340.63
2023-02-19T20:41:17.671Z,98353.56
2023-02-19T20:45:19.120Z,98341.47
2023-02-19T20:49:23.389Z,98341.19
2023-02-19T20:53:24.824Z,98341.75
2023-02-19T20:57:26.200Z,98341.75
2023-02-19T21:01:27.766Z,98351.16
2023-02-19T21:05:30.499Z,98348.94
2023-02-19T21:09:31.874Z,98354.75
2023-02-19T21:13:33.256Z,98354.19
2023-02-19T21:17:34.646Z,98349.50
2023-02-19T21:21:37.367Z,98358.06
2023-02-19T21:25:38.694Z,98345.97
2023-02-19T21:29:40.057Z,98344.84
2023-02-19T21:33:41.398Z,98341.50
2023-02-19T21:37:44.170Z,98337.06
2023-02-19T21:41:45.573Z,98336.50
2023-02-19T21:45:46.982Z,98342.34
2023-02-19T21:49:48.391Z,98353.31
2023-02-19T21:53:51.236Z,98354.13
2023-02-19T21:57:52.754Z,98356.56
2023-02-19T22:01:54.150Z,98351.34
2023-02-19T22:05:55.525Z,98368.88
2023-02-19T22:09:58.260Z,98359.03
2023-02-19T22:13:59.872Z,98360.34
2023-02-19T22:18:01.234Z,98365.00
2023-02-19T22:22:02.839Z,98366.84
2023-02-19T22:26:05.639Z,98374.03
2023-02-19T22:30:07.558Z,98373.41
2023-02-19T22:34:09.072Z,98381.13
2023-02-19T22:38:10.460Z,98388.47
2023-02-19T22:42:13.197Z,98391.81
2023-02-19T22:46:16.331Z,98390.69
2023-02-19T22:50:18.296Z,98398.94
2023-02-19T22:54:19.710Z,98397.06
2023-02-19T22:58:22.456Z,98396.78
2023-02-19T23:02:23.818Z,98391.81
2023-02-19T23:06:26.428Z,98386.31
2023-02-19T23:10:27.803Z,98387.16
2023-02-19T23:14:30.537Z,98380.31
2023-02-19T23:18:31.906Z,98386.69
2023-02-19T23:22:33.230Z,98388.03
2023-02-19T23:26:34.730Z,98387.47
2023-02-19T23:30:37.542Z,98389.88
2023-02-19T23:34:38.907Z,98397.59
2023-02-19T23:38:40.270Z,98389.06
2023-02-19T23:42:41.590Z,98375.53
2023-02-19T23:46:44.748Z,98384.38
2023-02-19T23:50:46.194Z,98379.09
2023-02-19T23:54:47.536Z,98384.06
2023-02-19T23:58:48.878Z,98366.47
